Map

Track Data

SID SEASON NUMBER BASIN SUBBASIN NAME ISO_TIME NATURE LAT LON WMO_WIND WMO_PRES WMO_AGENCY TRACK_TYPE DIST2LAND LANDFALL IFLAG USA_AGENCY USA_ATCF_ID USA_LAT USA_LON USA_RECORD USA_STATUS USA_WIND USA_PRES USA_SSHS USA_R34_NE USA_R34_SE USA_R34_SW USA_R34_NW USA_R50_NE USA_R50_SE USA_R50_SW USA_R50_NW USA_R64_NE USA_R64_SE USA_R64_SW USA_R64_NW USA_POCI USA_ROCI USA_RMW USA_EYE TOKYO_LAT TOKYO_LON TOKYO_GRADE TOKYO_WIND TOKYO_PRES TOKYO_R50_DIR TOKYO_R50_LONG TOKYO_R50_SHORT TOKYO_R30_DIR TOKYO_R30_LONG TOKYO_R30_SHORT TOKYO_LAND CMA_LAT CMA_LON CMA_CAT CMA_WIND CMA_PRES HKO_LAT HKO_LON HKO_CAT HKO_WIND HKO_PRES NEWDELHI_LAT NEWDELHI_LON NEWDELHI_GRADE NEWDELHI_WIND NEWDELHI_PRES NEWDELHI_CI NEWDELHI_DP NEWDELHI_POCI REUNION_LAT REUNION_LON REUNION_TYPE REUNION_WIND REUNION_PRES REUNION_TNUM REUNION_CI REUNION_RMW REUNION_R34_NE REUNION_R34_SE REUNION_R34_SW REUNION_R34_NW REUNION_R50_NE REUNION_R50_SE REUNION_R50_SW REUNION_R50_NW REUNION_R64_NE REUNION_R64_SE REUNION_R64_SW REUNION_R64_NW BOM_LAT BOM_LON BOM_TYPE BOM_WIND BOM_PRES BOM_TNUM BOM_CI BOM_RMW BOM_R34_NE BOM_R34_SE BOM_R34_SW BOM_R34_NW BOM_R50_NE BOM_R50_SE BOM_R50_SW BOM_R50_NW BOM_R64_NE BOM_R64_SE BOM_R64_SW BOM_R64_NW BOM_ROCI BOM_POCI BOM_EYE BOM_POS_METHOD BOM_PRES_METHOD NADI_LAT NADI_LON NADI_CAT NADI_WIND NADI_PRES WELLINGTON_LAT WELLINGTON_LON WELLINGTON_WIND WELLINGTON_PRES DS824_LAT DS824_LON DS824_STAGE DS824_WIND DS824_PRES TD9636_LAT TD9636_LON TD9636_STAGE TD9636_WIND TD9636_PRES TD9635_LAT TD9635_LON TD9635_WIND TD9635_PRES TD9635_ROCI NEUMANN_LAT NEUMANN_LON NEUMANN_CLASS NEUMANN_WIND NEUMANN_PRES MLC_LAT MLC_LON MLC_CLASS MLC_WIND MLC_PRES USA_GUST BOM_GUST BOM_GUST_PER REUNION_GUST REUNION_GUST_PER USA_SEAHGT USA_SEARAD_NE USA_SEARAD_SE USA_SEARAD_SW USA_SEARAD_NW STORM_SPEED STORM_DIR
1926278N13137 1926 52 WP MM NOT_NAMED 1926-10-05 10:00:00 NR 13.4000 136.700 main 1215 1164 __________O___ -1 13.4000 136.700 7 15 282
1926278N13137 1926 52 WP MM NOT_NAMED 1926-10-05 12:00:00 NR 13.5048 136.205 main 1164 1096 __________P___ -1 13.5048 136.205 7 15 282
1926278N13137 1926 52 WP MM NOT_NAMED 1926-10-05 15:00:00 NR 13.6592 135.472 main 1096 1023 __________P___ -1 13.6592 135.472 7 14 282
1926278N13137 1926 52 WP MM NOT_NAMED 1926-10-05 18:00:00 NR 13.8091 134.767 main 1023 951 __________P___ -1 13.8091 134.767 7 14 283
1926278N13137 1926 52 WP MM NOT_NAMED 1926-10-05 21:00:00 NR 13.9534 134.107 main 953 932 __________P___ -1 13.9534 134.107 7 13 283
1926278N13137 1926 52 WP MM NOT_NAMED 1926-10-05 22:00:00 NR 14.0000 133.900 main 932 892 __________O___ -1 14.0000 133.900 7 12 283
1926278N13137 1926 52 WP MM NOT_NAMED 1926-10-06 00:00:00 NR 14.0910 133.507 main 892 842 __________P___ -1 14.0910 133.507 7 11 284
1926278N13137 1926 52 WP MM NOT_NAMED 1926-10-06 03:00:00 NR 14.2218 132.962 main 842 793 __________P___ -1 14.2218 132.962 7 11 284
1926278N13137 1926 52 WP MM NOT_NAMED 1926-10-06 06:00:00 NR 14.3457 132.454 main 793 745 __________P___ -1 14.3457 132.454 7 10 284
1926278N13137 1926 52 WP MM NOT_NAMED 1926-10-06 09:00:00 NR 14.4626 131.963 main 749 728 __________P___ -1 14.4626 131.963 7 10 284
1926278N13137 1926 52 WP MM NOT_NAMED 1926-10-06 10:00:00 NR 14.5000 131.800 main 728 702 __________O___ -1 14.5000 131.800 7 10 283
1926278N13137 1926 52 WP MM NOT_NAMED 1926-10-06 12:00:00 NR 14.5694 131.466 main 702 657 __________P___ -1 14.5694 131.466 7 10 282
1926278N13137 1926 52 WP MM NOT_NAMED 1926-10-06 15:00:00 NR 14.6673 130.971 main 657 614 __________P___ -1 14.6673 130.971 7 10 281
1926278N13137 1926 52 WP MM NOT_NAMED 1926-10-06 18:00:00 NR 14.7635 130.477 main 614 572 __________P___ -1 14.7635 130.477 7 10 282
1926278N13137 1926 52 WP MM NOT_NAMED 1926-10-06 21:00:00 NR 14.8643 129.972 main 572 554 __________P___ -1 14.8643 129.972 7 10 282
1926278N13137 1926 52 WP MM NOT_NAMED 1926-10-06 22:00:00 NR 14.9000 129.800 main 554 525 __________O___ -1 14.9000 129.800 3 11 282
1926278N13137 1926 52 WP MM NOT_NAMED 1926-10-07 00:00:00 NR 14.9723 129.439 main 525 490 __________P___ -1 14.9723 129.439 3 11 282
1926278N13137 1926 52 WP MM NOT_NAMED 1926-10-07 03:00:00 NR 15.0870 128.886 main 490 444 __________P___ -1 15.0870 128.886 3 11 283
1926278N13137 1926 52 WP MM NOT_NAMED 1926-10-07 06:00:00 NR 15.2120 128.328 main 444 398 __________P___ -1 15.2120 128.328 3 11 284
1926278N13137 1926 52 WP MM NOT_NAMED 1926-10-07 09:00:00 NR 15.3503 127.779 main 402 383 __________P___ -1 15.3503 127.779 3 11 285
1926278N13137 1926 52 WP MM NOT_NAMED 1926-10-07 10:00:00 NR 15.4000 127.600 main 383 359 __________O___ -1 15.4000 127.600 4 10 286
1926278N13137 1926 52 WP MM NOT_NAMED 1926-10-07 12:00:00 NR 15.4917 127.258 main 359 320 __________P___ -1 15.4917 127.258 4 10 287
1926278N13137 1926 52 WP MM NOT_NAMED 1926-10-07 15:00:00 NR 15.6419 126.757 main 320 294 __________P___ -1 15.6419 126.757 4 10 289
1926278N13137 1926 52 WP MM NOT_NAMED 1926-10-07 18:00:00 NR 15.8156 126.263 main 294 273 __________P___ -1 15.8156 126.263 4 10 292
1926278N13137 1926 52 WP MM NOT_NAMED 1926-10-07 21:00:00 NR 16.0222 125.767 main 275 269 __________P___ -1 16.0222 125.767 4 10 294
1926278N13137 1926 52 WP MM NOT_NAMED 1926-10-07 22:00:00 NR 16.1000 125.600 main 273 268 __________O___ -1 16.1000 125.600 4 11 296
1926278N13137 1926 52 WP MM NOT_NAMED 1926-10-08 00:00:00 NR 16.2579 125.266 main 278 249 __________P___ -1 16.2579 125.266 4 11 298
1926278N13137 1926 52 WP MM NOT_NAMED 1926-10-08 03:00:00 NR 16.5263 124.758 main 249 181 __________P___ -1 16.5263 124.758 4 11 300
1926278N13137 1926 52 WP MM NOT_NAMED 1926-10-08 06:00:00 NR 16.8325 124.236 main 181 129 __________P___ -1 16.8325 124.236 4 12 302
1926278N13137 1926 52 WP MM NOT_NAMED 1926-10-08 09:00:00 NR 17.1768 123.689 main 129 111 __________P___ -1 17.1768 123.689 4 13 304
1926278N13137 1926 52 WP MM NOT_NAMED 1926-10-08 10:00:00 NR 17.3000 123.500 main 111 77 __________O___ -1 17.3000 123.500 4 14 305
1926278N13137 1926 52 WP MM NOT_NAMED 1926-10-08 12:00:00 NR 17.5706 123.096 main 81 33 __________P___ -1 17.5706 123.096 4 15 306
1926278N13137 1926 52 WP MM NOT_NAMED 1926-10-08 15:00:00 NR 18.0085 122.465 main 33 0 __________P___ -1 18.0085 122.465 4 15 306
1926278N13137 1926 52 WP MM NOT_NAMED 1926-10-08 18:00:00 NR 18.4538 121.825 main 22 15 __________P___ -1 18.4538 121.825 4 15 306
1926278N13137 1926 52 WP MM NOT_NAMED 1926-10-08 21:00:00 NR 18.8724 121.200 main 44 39 __________P___ -1 18.8724 121.200 4 14 305
1926278N13137 1926 52 WP MM NOT_NAMED 1926-10-08 22:00:00 NR 19.0000 121.000 main 45 44 __________O___ -1 19.0000 121.000 4 13 305
1926278N13137 1926 52 WP MM NOT_NAMED 1926-10-09 00:00:00 NR 19.2456 120.635 main 70 81 __________P___ -1 19.2456 120.635 4 12 305
1926278N13137 1926 52 WP MM NOT_NAMED 1926-10-09 03:00:00 NR 19.5773 120.113 main 133 133 __________P___ -1 19.5773 120.113 4 11 302
1926278N13137 1926 52 WP MM NOT_NAMED 1926-10-09 06:00:00 NR 19.8514 119.602 main 192 192 __________P___ -1 19.8514 119.602 4 11 296
1926278N13137 1926 52 WP MM NOT_NAMED 1926-10-09 09:00:00 NR 20.0521 119.080 main 244 244 __________P___ -1 20.0521 119.080 4 11 291
1926278N13137 1926 52 WP MM NOT_NAMED 1926-10-09 10:00:00 NR 20.1000 118.900 main 260 260 __________O___ -1 20.1000 118.900 4 11 282
1926278N13137 1926 52 WP MM NOT_NAMED 1926-10-09 12:00:00 NR 20.1738 118.482 main 297 305 __________P___ -1 20.1738 118.482 4 12 277
1926278N13137 1926 52 WP MM NOT_NAMED 1926-10-09 15:00:00 NR 20.2152 117.837 main 330 310 __________P___ -1 20.2152 117.837 4 12 271
1926278N13137 1926 52 WP MM NOT_NAMED 1926-10-09 18:00:00 NR 20.1924 117.213 main 310 298 __________P___ -1 20.1924 117.213 4 11 265
1926278N13137 1926 52 WP MM NOT_NAMED 1926-10-09 21:00:00 NR 20.1273 116.660 main 305 299 __________P___ -1 20.1273 116.660 4 10 262
1926278N13137 1926 52 WP MM NOT_NAMED 1926-10-09 22:00:00 NR 20.1000 116.500 main 299 293 __________O___ -1 20.1000 116.500 4 8 259
1926278N13137 1926 52 WP MM NOT_NAMED 1926-10-10 00:00:00 NR 20.0500 116.240 main 293 298 __________P___ -1 20.0500 116.240 4 7 254
1926278N13137 1926 52 WP MM NOT_NAMED 1926-10-10 03:00:00 NR 19.9506 115.931 main 298 302 __________P___ -1 19.9506 115.931 4 6 248
1926278N13137 1926 52 WP MM NOT_NAMED 1926-10-10 06:00:00 NR 19.8382 115.688 main 313 306 __________P___ -1 19.8382 115.688 4 5 243
1926278N13137 1926 52 WP MM NOT_NAMED 1926-10-10 09:00:00 NR 19.7313 115.472 main 316 312 __________P___ -1 19.7313 115.472 4 5 243
1926278N13137 1926 52 WP MM NOT_NAMED 1926-10-10 10:00:00 NR 19.7000 115.400 main 312 305 __________O___ -1 19.7000 115.400 4 5 252
1926278N13137 1926 52 WP MM NOT_NAMED 1926-10-10 12:00:00 NR 19.6551 115.230 main 305 305 __________P___ -1 19.6551 115.230 4 5 256
1926278N13137 1926 52 WP MM NOT_NAMED 1926-10-10 15:00:00 NR 19.6005 114.982 main 310 304 __________P___ -1 19.6005 114.982 4 5 258
1926278N13137 1926 52 WP MM NOT_NAMED 1926-10-10 18:00:00 NR 19.5556 114.736 main 304 304 __________P___ -1 19.5556 114.736 4 5 260
1926278N13137 1926 52 WP MM NOT_NAMED 1926-10-10 21:00:00 NR 19.5141 114.486 main 310 305 __________P___ -1 19.5141 114.486 4 5 260
1926278N13137 1926 52 WP MM NOT_NAMED 1926-10-10 22:00:00 NR 19.5000 114.400 main 305 295 __________O___ -1 19.5000 114.400 4 5 259
1926278N13137 1926 52 WP MM NOT_NAMED 1926-10-11 00:00:00 NR 19.4666 114.228 main 295 295 __________P___ -1 19.4666 114.228 4 5 258
1926278N13137 1926 52 WP MM NOT_NAMED 1926-10-11 03:00:00 NR 19.4164 113.963 main 298 283 __________P___ -1 19.4164 113.963 4 5 259
1926278N13137 1926 52 WP MM NOT_NAMED 1926-10-11 06:00:00 NR 19.3664 113.688 main 283 253 __________P___ -1 19.3664 113.688 4 5 259
1926278N13137 1926 52 WP MM NOT_NAMED 1926-10-11 09:00:00 NR 19.3166 113.400 main 253 243 __________P___ -1 19.3166 113.400 4 6 260
1926278N13137 1926 52 WP MM NOT_NAMED 1926-10-11 10:00:00 NR 19.3000 113.300 main 243 222 __________O___ -1 19.3000 113.300 4 6 260
1926278N13137 1926 52 WP MM NOT_NAMED 1926-10-11 12:00:00 NR 19.2669 113.095 main 222 194 __________P___ -1 19.2669 113.095 4 6 260
1926278N13137 1926 52 WP MM NOT_NAMED 1926-10-11 15:00:00 NR 19.2172 112.776 main 194 153 __________P___ -1 19.2172 112.776 4 6 261
1926278N13137 1926 52 WP MM NOT_NAMED 1926-10-11 18:00:00 NR 19.1672 112.447 main 153 128 __________P___ -1 19.1672 112.447 4 6 261
1926278N13137 1926 52 WP MM NOT_NAMED 1926-10-11 21:00:00 NR 19.1169 112.112 main 128 118 __________P___ -1 19.1169 112.112 4 6 261
1926278N13137 1926 52 WP MM NOT_NAMED 1926-10-11 22:00:00 NR 19.1000 112.000 main 118 __________O___ -1 19.1000 112.000 7 6 261

Digital Typhoon Data and Search

About IBTrACS Database

This database is a web-friendly format of International Best Track Archive for Climate Stewardship (IBTrACS), a global best track data archive curated by NOAA dating back to 1842.

Updated: 2021-10-21